createdAt,value
2022-12-25T00:01:50.799Z,45.01
2022-12-25T00:04:17.166Z,45.12
2022-12-25T00:06:43.562Z,44.84
2022-12-25T00:09:09.923Z,44.89
2022-12-25T00:11:36.280Z,45.10
2022-12-25T00:14:02.650Z,45.48
2022-12-25T00:16:29.051Z,45.15
2022-12-25T00:18:55.513Z,45.30
2022-12-25T00:21:21.921Z,45.21
2022-12-25T00:23:48.319Z,44.86
2022-12-25T00:26:14.732Z,45.29
2022-12-25T00:28:41.133Z,45.10
2022-12-25T00:31:07.589Z,44.86
2022-12-25T00:33:34.037Z,45.13
2022-12-25T00:36:00.481Z,44.81
2022-12-25T00:38:26.924Z,45.09
2022-12-25T00:40:53.307Z,45.04
2022-12-25T00:43:19.665Z,44.86
2022-12-25T00:45:46.052Z,44.75
2022-12-25T00:48:12.595Z,45.44
2022-12-25T00:50:38.989Z,44.75
2022-12-25T00:53:05.358Z,45.21
2022-12-25T00:55:31.754Z,44.94
2022-12-25T00:57:58.134Z,44.98
2022-12-25T01:00:24.484Z,45.03
2022-12-25T01:02:50.956Z,45.33
2022-12-25T01:05:17.388Z,45.33
2022-12-25T01:07:43.769Z,45.31
2022-12-25T01:10:10.161Z,44.95
2022-12-25T01:12:36.533Z,45.18
2022-12-25T01:15:02.912Z,45.10
2022-12-25T01:17:29.267Z,45.22
2022-12-25T01:19:55.665Z,45.43
2022-12-25T01:22:22.061Z,45.06
2022-12-25T01:24:48.455Z,45.19
2022-12-25T01:27:14.827Z,45.14
2022-12-25T01:29:41.206Z,45.29
2022-12-25T01:32:07.749Z,44.91
2022-12-25T01:34:34.260Z,45.19
2022-12-25T01:37:00.624Z,45.32
2022-12-25T01:39:27.000Z,45.35
2022-12-25T01:41:53.452Z,45.49
2022-12-25T01:44:19.818Z,45.62
2022-12-25T01:46:46.184Z,44.98
2022-12-25T01:49:12.562Z,45.30
2022-12-25T01:51:38.922Z,45.25
2022-12-25T01:54:05.289Z,45.18
2022-12-25T01:56:31.637Z,45.47
2022-12-25T01:58:58.020Z,45.76
2022-12-25T02:01:24.436Z,45.69
2022-12-25T02:03:50.929Z,45.16
2022-12-25T02:06:17.318Z,45.32
2022-12-25T02:08:43.701Z,45.51
2022-12-25T02:11:10.106Z,45.46
2022-12-25T02:13:36.483Z,45.50
2022-12-25T02:16:02.966Z,45.47
2022-12-25T02:18:29.367Z,45.45
2022-12-25T02:20:55.768Z,45.48
2022-12-25T02:23:22.150Z,45.76
2022-12-25T02:25:48.514Z,45.58
2022-12-25T02:28:14.903Z,45.66
2022-12-25T02:30:41.262Z,45.30
2022-12-25T02:33:07.628Z,45.52
2022-12-25T02:35:34.144Z,45.01
2022-12-25T02:38:00.510Z,45.74
2022-12-25T02:40:26.868Z,45.21
2022-12-25T02:42:53.225Z,45.36
2022-12-25T02:45:19.598Z,45.59
2022-12-25T02:47:45.972Z,45.49
2022-12-25T02:50:12.396Z,45.37
2022-12-25T02:52:38.809Z,45.65
2022-12-25T02:55:05.185Z,45.12
2022-12-25T02:57:31.547Z,45.48
2022-12-25T02:59:58.051Z,45.77
2022-12-25T03:02:24.484Z,45.23
2022-12-25T03:04:50.910Z,45.72
2022-12-25T03:07:17.447Z,45.49
2022-12-25T03:09:43.820Z,45.62
2022-12-25T03:12:10.180Z,45.70
2022-12-25T03:14:36.617Z,45.79
2022-12-25T03:17:03.072Z,46.01
2022-12-25T03:19:29.570Z,46.10
2022-12-25T03:21:56.062Z,45.85
2022-12-25T03:24:22.441Z,46.08
2022-12-25T03:26:48.818Z,45.90
2022-12-25T03:29:15.294Z,45.82
2022-12-25T03:31:41.671Z,45.74
2022-12-25T03:34:08.030Z,45.43
2022-12-25T03:36:34.416Z,45.31
2022-12-25T03:39:00.815Z,45.83
2022-12-25T03:41:27.184Z,45.67
2022-12-25T03:43:53.579Z,45.84
2022-12-25T03:46:20.012Z,45.71
2022-12-25T03:48:46.421Z,45.87
2022-12-25T03:51:12.804Z,45.74
2022-12-25T03:53:39.179Z,45.87
2022-12-25T03:56:05.571Z,45.99
2022-12-25T03:58:31.934Z,45.54
2022-12-25T04:00:58.323Z,46.02
2022-12-25T04:03:24.816Z,46.03
2022-12-25T04:05:51.284Z,45.54
2022-12-25T04:08:17.658Z,45.61
2022-12-25T04:10:44.066Z,45.92
2022-12-25T04:13:10.430Z,45.84
2022-12-25T04:15:36.851Z,46.58
2022-12-25T04:18:03.348Z,46.11
2022-12-25T04:20:29.717Z,46.31
2022-12-25T04:22:56.092Z,46.03
2022-12-25T04:25:22.446Z,46.36
2022-12-25T04:27:48.794Z,46.12
2022-12-25T04:30:15.283Z,46.33
2022-12-25T04:32:41.677Z,46.14
2022-12-25T04:35:08.033Z,46.49
2022-12-25T04:37:34.406Z,47.03
2022-12-25T04:40:00.781Z,46.71
2022-12-25T04:42:27.194Z,46.67
2022-12-25T04:44:53.573Z,46.11
2022-12-25T04:47:19.947Z,46.44
2022-12-25T04:49:46.311Z,46.26
2022-12-25T04:52:12.677Z,46.02
2022-12-25T04:54:39.030Z,46.11
2022-12-25T04:57:05.405Z,46.24
2022-12-25T04:59:31.788Z,46.59
2022-12-25T05:01:58.266Z,46.57
2022-12-25T05:04:24.707Z,46.55
2022-12-25T05:06:51.113Z,46.64
2022-12-25T05:09:17.510Z,46.50
2022-12-25T05:11:43.866Z,45.93
2022-12-25T05:14:10.214Z,46.26
2022-12-25T05:16:36.931Z,46.22
2022-12-25T05:19:03.293Z,46.48
2022-12-25T05:21:29.689Z,46.64
2022-12-25T05:23:56.053Z,46.45
2022-12-25T05:26:22.437Z,46.28
2022-12-25T05:28:48.810Z,46.42
2022-12-25T05:31:15.209Z,46.54
2022-12-25T05:33:41.723Z,46.32
2022-12-25T05:36:08.081Z,46.40
2022-12-25T05:38:34.478Z,46.66
2022-12-25T05:41:00.874Z,46.52
2022-12-25T05:43:27.234Z,46.86
2022-12-25T05:45:53.624Z,46.69
2022-12-25T05:48:19.993Z,46.33
2022-12-25T05:50:46.385Z,46.73
2022-12-25T05:53:12.790Z,46.49
2022-12-25T05:55:39.174Z,46.33
2022-12-25T05:58:05.557Z,46.50
2022-12-25T06:00:31.918Z,46.38
2022-12-25T06:02:58.380Z,46.23
2022-12-25T06:05:24.853Z,46.35
2022-12-25T06:07:51.224Z,46.91
2022-12-25T06:10:17.592Z,46.12
2022-12-25T06:12:43.961Z,46.59
2022-12-25T06:15:10.332Z,46.58
2022-12-25T06:17:36.721Z,46.59
2022-12-25T06:20:03.104Z,46.57
2022-12-25T06:22:29.473Z,46.44
2022-12-25T06:24:56.004Z,46.48
2022-12-25T06:27:22.398Z,46.54
2022-12-25T06:29:48.762Z,46.54
2022-12-25T06:32:15.277Z,46.41
2022-12-25T06:34:41.665Z,46.42
2022-12-25T06:37:08.071Z,46.53
2022-12-25T06:39:34.445Z,46.88
2022-12-25T06:42:00.823Z,46.39
2022-12-25T06:44:27.173Z,46.26
2022-12-25T06:46:53.552Z,46.31
2022-12-25T06:49:19.937Z,46.57
2022-12-25T06:51:46.323Z,46.71
2022-12-25T06:54:12.676Z,46.53
2022-12-25T06:56:39.091Z,46.35
2022-12-25T06:59:05.454Z,46.46
2022-12-25T07:01:31.918Z,46.61
2022-12-25T07:03:58.412Z,46.85
2022-12-25T07:06:24.779Z,46.57
2022-12-25T07:08:51.123Z,46.55
2022-12-25T07:11:17.494Z,46.74
2022-12-25T07:13:43.854Z,46.86
2022-12-25T07:16:10.294Z,46.31
2022-12-25T07:18:36.698Z,46.16
2022-12-25T07:21:03.056Z,46.39
2022-12-25T07:23:29.432Z,46.23
2022-12-25T07:25:55.802Z,46.71
2022-12-25T07:28:22.201Z,46.53
2022-12-25T07:30:48.562Z,46.47
2022-12-25T07:33:14.958Z,46.52
2022-12-25T07:35:41.338Z,46.62
2022-12-25T07:38:07.687Z,46.31
2022-12-25T07:40:34.100Z,46.30
2022-12-25T07:43:00.476Z,46.46
2022-12-25T07:45:26.976Z,46.32
2022-12-25T07:47:55.130Z,46.87
2022-12-25T07:50:21.636Z,46.76
2022-12-25T07:52:48.012Z,46.99
2022-12-25T07:55:14.386Z,46.39
2022-12-25T07:57:40.789Z,46.71
2022-12-25T08:00:07.163Z,46.96
2022-12-25T08:02:33.847Z,46.71
2022-12-25T08:05:00.429Z,46.58
2022-12-25T08:07:26.808Z,46.91
2022-12-25T08:09:53.169Z,46.84
2022-12-25T08:12:19.533Z,46.63
2022-12-25T08:14:45.903Z,46.46
2022-12-25T08:17:12.323Z,47.16
2022-12-25T08:19:38.841Z,46.76
2022-12-25T08:22:05.232Z,46.65
2022-12-25T08:24:31.592Z,46.96
2022-12-25T08:26:57.956Z,46.81
2022-12-25T08:29:24.347Z,46.78
2022-12-25T08:31:50.725Z,46.81
2022-12-25T08:34:17.100Z,46.62
2022-12-25T08:36:43.588Z,47.19
2022-12-25T08:39:09.931Z,47.39
2022-12-25T08:41:36.306Z,47.27
2022-12-25T08:44:02.673Z,47.91
2022-12-25T08:46:29.131Z,47.81
2022-12-25T08:48:55.537Z,47.54
2022-12-25T08:51:21.895Z,48.04
2022-12-25T08:53:48.385Z,47.88
2022-12-25T08:56:14.789Z,47.50
2022-12-25T08:58:41.164Z,47.85
2022-12-25T09:01:07.614Z,47.43
2022-12-25T09:03:34.043Z,47.73
2022-12-25T09:06:00.420Z,47.89
2022-12-25T09:08:26.785Z,47.84
2022-12-25T09:10:53.156Z,47.72
2022-12-25T09:13:19.559Z,48.05
2022-12-25T09:15:45.987Z,48.45
2022-12-25T09:18:12.378Z,47.05
2022-12-25T09:20:38.764Z,46.94
2022-12-25T09:23:09.972Z,47.26
2022-12-25T09:25:39.780Z,47.27
2022-12-25T09:28:06.172Z,47.31
2022-12-25T09:30:32.597Z,47.08
2022-12-25T09:32:59.055Z,47.28
2022-12-25T09:35:25.551Z,47.15
2022-12-25T09:37:51.951Z,47.45
2022-12-25T09:40:18.330Z,46.80
2022-12-25T09:42:44.699Z,47.16
2022-12-25T09:45:11.087Z,47.18
2022-12-25T09:47:37.435Z,47.18
2022-12-25T09:50:03.822Z,46.91
2022-12-25T09:52:30.189Z,46.60
2022-12-25T09:54:56.588Z,46.24
2022-12-25T09:57:22.991Z,46.82
2022-12-25T09:59:49.371Z,46.65
2022-12-25T10:02:15.837Z,46.51
2022-12-25T10:04:42.405Z,46.73
2022-12-25T10:07:08.779Z,46.58
2022-12-25T10:09:35.123Z,46.20
2022-12-25T10:12:01.515Z,46.24
2022-12-25T10:14:27.879Z,45.95
2022-12-25T10:16:54.243Z,48.29
2022-12-25T10:19:20.739Z,49.68
2022-12-25T10:21:47.116Z,47.97
2022-12-25T10:24:13.463Z,49.17
2022-12-25T10:26:39.864Z,47.26
2022-12-25T10:29:06.256Z,47.29
2022-12-25T10:31:32.669Z,47.59
2022-12-25T10:33:59.097Z,48.25
2022-12-25T10:36:25.470Z,47.00
2022-12-25T10:38:51.838Z,47.29
2022-12-25T10:41:18.329Z,47.93
2022-12-25T10:43:44.692Z,50.24
2022-12-25T10:46:11.151Z,54.31
2022-12-25T10:48:37.544Z,52.46
2022-12-25T10:51:03.924Z,53.03
2022-12-25T10:53:30.310Z,52.22
2022-12-25T10:55:56.683Z,50.38
2022-12-25T10:58:23.097Z,51.55
2022-12-25T11:00:49.487Z,50.31
2022-12-25T11:03:16.021Z,51.13
2022-12-25T11:05:42.479Z,51.52
2022-12-25T11:08:08.858Z,50.54
2022-12-25T11:10:35.221Z,50.84
2022-12-25T11:13:01.619Z,51.26
2022-12-25T11:15:28.012Z,51.50
2022-12-25T11:17:54.427Z,54.04
2022-12-25T11:20:20.783Z,52.76
2022-12-25T11:22:47.170Z,52.29
2022-12-25T11:25:13.536Z,51.76
2022-12-25T11:27:39.916Z,51.08
2022-12-25T11:30:07.854Z,50.17
2022-12-25T11:32:37.958Z,49.55
2022-12-25T11:35:04.349Z,49.33
2022-12-25T11:37:30.721Z,49.27
2022-12-25T11:39:57.137Z,49.14
2022-12-25T11:42:23.511Z,50.28
2022-12-25T11:44:49.881Z,49.96
2022-12-25T11:47:16.261Z,49.66
2022-12-25T11:49:45.840Z,49.76
2022-12-25T11:52:15.971Z,49.37
2022-12-25T11:54:42.364Z,49.68
2022-12-25T11:57:08.719Z,50.26
2022-12-25T11:59:35.098Z,50.40
2022-12-25T12:02:01.498Z,50.52
2022-12-25T12:04:31.748Z,50.13
2022-12-25T12:06:59.142Z,50.10
2022-12-25T12:09:25.523Z,49.94
2022-12-25T12:11:52.020Z,49.42
2022-12-25T12:14:18.394Z,49.12
2022-12-25T12:16:44.813Z,49.68
2022-12-25T12:19:11.213Z,49.60
2022-12-25T12:21:37.584Z,49.08
2022-12-25T12:24:03.979Z,48.97
2022-12-25T12:26:30.350Z,49.26
2022-12-25T12:28:56.711Z,48.94
2022-12-25T12:31:23.094Z,49.00
2022-12-25T12:33:49.574Z,48.96
2022-12-25T12:36:15.942Z,48.74
2022-12-25T12:38:42.322Z,48.45
2022-12-25T12:41:08.706Z,48.84
2022-12-25T12:43:35.109Z,49.24
2022-12-25T12:46:01.532Z,49.55
2022-12-25T12:48:27.944Z,50.67
2022-12-25T12:50:54.299Z,50.17
2022-12-25T12:53:20.628Z,49.75
2022-12-25T12:55:47.000Z,49.49
2022-12-25T12:58:13.366Z,49.43
2022-12-25T13:00:39.818Z,49.39
2022-12-25T13:03:06.270Z,49.60
2022-12-25T13:05:35.000Z,48.88
2022-12-25T13:08:01.488Z,49.07
2022-12-25T13:10:27.897Z,49.07
2022-12-25T13:12:54.292Z,49.05
2022-12-25T13:15:20.663Z,49.04
2022-12-25T13:17:47.020Z,48.88
2022-12-25T13:20:13.399Z,48.51
2022-12-25T13:22:39.777Z,48.49
2022-12-25T13:25:06.166Z,48.54
2022-12-25T13:27:32.611Z,48.17
2022-12-25T13:29:59.092Z,48.08
2022-12-25T13:32:25.489Z,48.33
2022-12-25T13:34:51.856Z,47.88
2022-12-25T13:37:18.243Z,47.65
2022-12-25T13:39:44.621Z,47.77
2022-12-25T13:42:11.024Z,48.24
2022-12-25T13:44:37.408Z,47.87
2022-12-25T13:47:03.776Z,48.23
2022-12-25T13:49:30.143Z,48.01
2022-12-25T13:51:56.516Z,47.63
2022-12-25T13:54:22.931Z,47.66
2022-12-25T13:56:49.319Z,47.53
2022-12-25T13:59:15.714Z,47.36
2022-12-25T14:01:42.278Z,47.09
2022-12-25T14:04:08.765Z,47.15
2022-12-25T14:06:35.135Z,47.15
2022-12-25T14:09:01.519Z,47.39
2022-12-25T14:11:27.892Z,47.22
2022-12-25T14:13:54.253Z,47.37
2022-12-25T14:16:20.698Z,46.68
2022-12-25T14:18:47.199Z,47.02
2022-12-25T14:21:13.545Z,47.01
2022-12-25T14:23:39.921Z,46.89
2022-12-25T14:26:06.288Z,47.34
2022-12-25T14:28:33.774Z,47.52
2022-12-25T14:31:00.219Z,47.30
2022-12-25T14:33:27.439Z,47.22
2022-12-25T14:35:53.821Z,47.29
2022-12-25T14:38:20.183Z,46.99
2022-12-25T14:40:46.557Z,47.04
2022-12-25T14:43:12.941Z,47.05
2022-12-25T14:45:39.302Z,46.67
2022-12-25T14:48:05.717Z,46.76
2022-12-25T14:50:32.119Z,46.82
2022-12-25T14:52:58.484Z,46.23
2022-12-25T14:55:24.878Z,46.46
2022-12-25T14:57:51.286Z,46.42
2022-12-25T15:00:17.689Z,46.52
2022-12-25T15:02:44.368Z,46.23
2022-12-25T15:05:10.988Z,46.55
2022-12-25T15:07:37.387Z,46.57
2022-12-25T15:10:57.057Z,46.22
2022-12-25T15:12:50.151Z,46.36
2022-12-25T15:15:16.566Z,46.80
2022-12-25T15:17:42.938Z,46.73
2022-12-25T15:20:09.322Z,46.87
2022-12-25T15:23:02.426Z,46.35
2022-12-25T15:25:22.178Z,46.33
2022-12-25T15:27:48.604Z,46.56
2022-12-25T15:30:15.093Z,46.30
2022-12-25T15:32:41.499Z,46.52
2022-12-25T15:35:07.904Z,46.37
2022-12-25T15:37:34.328Z,46.75
2022-12-25T15:40:02.167Z,46.32
2022-12-25T15:42:28.874Z,46.79
2022-12-25T15:44:55.286Z,49.19
2022-12-25T15:47:21.777Z,48.05
2022-12-25T15:49:48.186Z,48.69
2022-12-25T15:52:14.607Z,48.21
2022-12-25T15:54:41.124Z,47.85
2022-12-25T15:57:07.587Z,48.08
2022-12-25T15:59:33.979Z,47.59
2022-12-25T16:02:00.570Z,47.96
2022-12-25T16:04:27.092Z,48.00
2022-12-25T16:06:53.556Z,47.61
2022-12-25T16:09:20.012Z,47.46
2022-12-25T16:11:46.428Z,47.21
2022-12-25T16:14:12.835Z,47.54
2022-12-25T16:16:39.431Z,47.74
2022-12-25T16:19:05.908Z,47.73
2022-12-25T16:21:32.331Z,47.53
2022-12-25T16:23:58.895Z,47.62
2022-12-25T16:26:25.338Z,47.31
2022-12-25T16:28:51.782Z,47.29
2022-12-25T16:31:18.187Z,47.25
2022-12-25T16:33:44.633Z,47.64
2022-12-25T16:36:11.053Z,47.60
2022-12-25T16:38:37.449Z,47.30
2022-12-25T16:41:03.847Z,47.49
2022-12-25T16:43:30.294Z,47.37
2022-12-25T16:45:56.810Z,47.45
2022-12-25T16:48:23.215Z,47.75
2022-12-25T16:50:49.615Z,47.60
2022-12-25T16:53:16.051Z,47.75
2022-12-25T16:55:42.424Z,47.49
2022-12-25T16:58:08.920Z,47.34
2022-12-25T17:00:35.317Z,47.56
2022-12-25T17:03:01.930Z,47.51
2022-12-25T17:05:28.511Z,47.39
2022-12-25T17:07:54.882Z,47.10
2022-12-25T17:10:21.445Z,47.50
2022-12-25T17:12:47.914Z,47.50
2022-12-25T17:15:14.276Z,47.26
2022-12-25T17:17:40.646Z,47.17
2022-12-25T17:20:07.059Z,47.23
2022-12-25T17:22:33.448Z,47.13
2022-12-25T17:24:59.841Z,47.32
2022-12-25T17:27:26.211Z,47.13
2022-12-25T17:29:52.615Z,47.31
2022-12-25T17:32:18.983Z,46.79
2022-12-25T17:34:45.365Z,46.59
2022-12-25T17:37:11.724Z,47.07
2022-12-25T17:39:38.110Z,46.79
2022-12-25T17:42:04.477Z,46.50
2022-12-25T17:44:30.836Z,46.71
2022-12-25T17:46:57.272Z,46.29
2022-12-25T17:49:23.652Z,46.48
2022-12-25T17:51:50.037Z,46.77
2022-12-25T17:54:16.419Z,46.43
2022-12-25T17:56:42.772Z,46.93
2022-12-25T17:59:09.149Z,46.69
2022-12-25T18:01:35.647Z,47.00
2022-12-25T18:04:02.235Z,46.38
2022-12-25T18:06:28.704Z,46.17
2022-12-25T18:08:55.076Z,45.82
2022-12-25T18:11:21.478Z,46.24
2022-12-25T18:13:47.817Z,46.19
2022-12-25T18:16:14.231Z,47.13
2022-12-25T18:18:40.949Z,47.55
2022-12-25T18:21:08.741Z,47.69
2022-12-25T18:23:35.121Z,47.27
2022-12-25T18:26:01.525Z,47.17
2022-12-25T18:28:27.897Z,46.67
2022-12-25T18:30:54.256Z,47.09
2022-12-25T18:33:20.638Z,46.62
2022-12-25T18:35:47.011Z,46.47
2022-12-25T18:38:13.399Z,46.60
2022-12-25T18:40:39.787Z,46.27
2022-12-25T18:43:06.173Z,46.10
2022-12-25T18:45:32.603Z,47.24
2022-12-25T18:47:58.993Z,46.53
2022-12-25T18:50:25.347Z,46.19
2022-12-25T18:52:52.127Z,45.97
2022-12-25T18:55:18.663Z,45.97
2022-12-25T18:57:45.041Z,45.80
2022-12-25T19:00:11.455Z,46.04
2022-12-25T19:02:37.945Z,45.58
2022-12-25T19:05:04.417Z,45.62
2022-12-25T19:07:30.771Z,45.87
2022-12-25T19:09:57.279Z,45.63
2022-12-25T19:12:23.650Z,45.64
2022-12-25T19:14:50.038Z,45.69
2022-12-25T19:17:16.411Z,45.84
2022-12-25T19:19:42.822Z,45.33
2022-12-25T19:22:10.226Z,45.48
2022-12-25T19:24:36.582Z,45.60
2022-12-25T19:27:02.991Z,45.72
2022-12-25T19:29:29.482Z,46.48
2022-12-25T19:31:55.886Z,45.87
2022-12-25T19:34:22.302Z,48.23
2022-12-25T19:36:48.727Z,47.17
2022-12-25T19:39:15.105Z,47.27
2022-12-25T19:41:41.462Z,46.61
2022-12-25T19:44:07.827Z,46.66
2022-12-25T19:46:34.252Z,46.51
2022-12-25T19:49:00.619Z,46.03
2022-12-25T19:51:27.009Z,45.97
2022-12-25T19:53:53.434Z,45.82
2022-12-25T19:56:19.842Z,45.81
2022-12-25T19:58:46.198Z,45.86
2022-12-25T20:01:12.772Z,45.86
2022-12-25T20:03:45.874Z,46.09
2022-12-25T20:06:12.655Z,45.15
2022-12-25T20:08:39.065Z,45.87
2022-12-25T20:11:05.452Z,45.88
2022-12-25T20:13:31.887Z,45.65
2022-12-25T20:15:58.300Z,45.74
2022-12-25T20:18:24.676Z,45.83
2022-12-25T20:20:51.052Z,45.76
2022-12-25T20:23:17.425Z,46.04
2022-12-25T20:25:43.859Z,45.80
2022-12-25T20:28:10.344Z,45.69
2022-12-25T20:30:36.700Z,45.81
2022-12-25T20:33:03.060Z,45.79
2022-12-25T20:35:29.440Z,45.46
2022-12-25T20:37:55.799Z,45.93
2022-12-25T20:40:22.179Z,45.62
2022-12-25T20:42:48.582Z,45.35
2022-12-25T20:45:14.977Z,45.60
2022-12-25T20:47:41.375Z,45.71
2022-12-25T20:50:07.764Z,45.90
2022-12-25T20:52:34.146Z,45.72
2022-12-25T20:55:00.514Z,45.71
2022-12-25T20:57:26.935Z,45.98
2022-12-25T20:59:53.367Z,45.37
2022-12-25T21:02:34.034Z,45.34
2022-12-25T21:05:02.528Z,45.75
2022-12-25T21:07:28.947Z,45.66
2022-12-25T21:09:55.313Z,46.02
2022-12-25T21:12:21.698Z,45.69
2022-12-25T21:14:48.059Z,46.20
2022-12-25T21:17:14.510Z,45.97
2022-12-25T21:19:40.964Z,46.00
2022-12-25T21:22:07.460Z,46.16
2022-12-25T21:24:33.871Z,46.23
2022-12-25T21:27:00.240Z,46.14
2022-12-25T21:29:26.799Z,45.57
2022-12-25T21:31:53.159Z,45.95
2022-12-25T21:34:19.586Z,45.61
2022-12-25T21:36:46.009Z,45.90
2022-12-25T21:39:12.407Z,45.63
2022-12-25T21:41:38.772Z,45.76
2022-12-25T21:44:05.192Z,45.86
2022-12-25T21:46:31.650Z,46.00
2022-12-25T21:48:58.230Z,46.02
2022-12-25T21:51:24.701Z,46.29
2022-12-25T21:53:51.092Z,45.96
2022-12-25T21:56:17.482Z,46.03
2022-12-25T21:58:43.876Z,46.02
2022-12-25T22:01:10.268Z,46.49
2022-12-25T22:03:36.660Z,46.03
2022-12-25T22:06:03.103Z,45.97
2022-12-25T22:08:29.471Z,46.35
2022-12-25T22:10:55.915Z,46.24
2022-12-25T22:13:24.640Z,45.88
2022-12-25T22:15:51.154Z,45.98
2022-12-25T22:18:17.556Z,45.68
2022-12-25T22:20:43.937Z,46.13
2022-12-25T22:23:10.299Z,46.02
2022-12-25T22:25:36.695Z,45.66
2022-12-25T22:28:03.080Z,46.06
2022-12-25T22:30:29.481Z,45.73
2022-12-25T22:32:55.884Z,45.91
2022-12-25T22:35:22.279Z,45.87
2022-12-25T22:37:48.628Z,46.09
2022-12-25T22:40:15.011Z,45.76
2022-12-25T22:42:41.424Z,45.86
2022-12-25T22:45:07.801Z,45.97
2022-12-25T22:47:34.169Z,46.40
2022-12-25T22:50:00.549Z,46.23
2022-12-25T22:52:26.909Z,46.11
2022-12-25T22:54:53.302Z,45.79
2022-12-25T22:57:19.694Z,45.95
2022-12-25T22:59:46.117Z,45.84
2022-12-25T23:02:12.626Z,46.29
2022-12-25T23:04:39.085Z,45.79
2022-12-25T23:07:05.579Z,45.86
2022-12-25T23:09:31.938Z,45.75
2022-12-25T23:11:58.407Z,45.62
2022-12-25T23:14:24.814Z,45.67
2022-12-25T23:16:51.178Z,46.05
2022-12-25T23:19:17.564Z,45.93
2022-12-25T23:21:43.980Z,46.08
2022-12-25T23:24:10.353Z,46.07
2022-12-25T23:26:36.715Z,46.06
2022-12-25T23:29:03.060Z,46.18
2022-12-25T23:31:29.512Z,45.70
2022-12-25T23:33:55.942Z,46.02
2022-12-25T23:36:22.283Z,45.95
2022-12-25T23:38:48.696Z,45.67
2022-12-25T23:41:15.088Z,45.98
2022-12-25T23:43:41.458Z,45.90
2022-12-25T23:46:07.881Z,45.94
2022-12-25T23:48:34.279Z,45.73
2022-12-25T23:51:00.643Z,46.01
2022-12-25T23:53:27.034Z,45.64
2022-12-25T23:55:55.857Z,45.87
2022-12-25T23:58:22.461Z,45.53
